• Join FlightAware (Why Join?)
  • Login
  • US Flag 
12:41AM EDT


 

Airport Tracker/Info


-or-


 

Live Flight TrackerFlight Track Log ✈ SWA2130 ✈ 23-Apr-2013 ✈ KLAX - KELP

Flight Track Log - Related Links

Times and Time Zones

All times are in EDT time to prevent confusion due to time zone crossing. See the SWA2130 flight status page for this flight to view local times or setup timezone preferences in your user account.

Time Position Orientation Groundspeed Altitude Reporting Facility
EDT Latitude Longitude Course Direction KTS MPH feet Rate Location/Type
08:55PM 33.9392 -118.5611 266° West 264 304 5,000  Level Los Angeles Center
08:56PM 33.8892 -118.6175 223° Southwest 268 308 5,000 1,140 Level Los Angeles Center
08:57PM 33.8231 -118.5850 158° South 266 306 7,400 2,820 Climbing Los Angeles Center
08:58PM 33.7519 -118.5492 157° South 277 319 10,900 3,540 Climbing Los Angeles Center
08:59PM 33.6789 -118.4614 135° Southeast 337 388 14,700 3,300 Climbing Los Angeles Center
09:00PM 33.6478 -118.3536 109° East 349 402 17,800 2,700 Climbing Los Angeles Center
09:01PM 33.6436 -118.2289 92° East 387 445 20,400 2,640 Climbing Los Angeles Center
09:02PM 33.6439 -118.0972 90° East 398 458 23,300 2,820 Climbing Los Angeles Center
09:03PM 33.6444 -117.9319 90° East 416 479 26,200 2,400 Climbing Los Angeles Center
09:04PM 33.6442 -117.7883 90° East 430 495 28,300 1,740 Climbing Los Angeles Center
09:06PM 33.6431 -117.6378 90° East 448 516 29,800 1,560 Climbing Los Angeles Center
09:07PM 33.6425 -117.4814 90° East 467 537 31,600 1,500 Climbing Los Angeles Center
09:08PM 33.6408 -117.3194 91° East 483 556 33,000 1,560 Climbing Los Angeles Center
09:09PM 33.6414 -117.1533 90° East 498 573 34,900 1,680 Climbing Los Angeles Center
09:10PM 33.6394 -116.9897 91° East 494 568 36,500 1,560 Climbing Los Angeles Center
09:11PM 33.6342 -116.8097 92° East 491 565 38,100 1,140 Climbing Los Angeles Center
09:12PM 33.6089 -116.6483 101° East 493 567 38,900 900 Climbing Los Angeles Center
09:13PM 33.5858 -116.4814 99° East 502 578 40,000 960 Climbing Los Angeles Center
09:14PM 33.5600 -116.3167 101° East 500 575 40,900 420 Climbing Los Angeles Center
09:15PM 33.5358 -116.1519 100° East 501 577 40,900  Level Los Angeles Center
09:16PM 33.5053 -115.9550 100° East 499 574 40,900  Level Los Angeles Center
09:17PM 33.4797 -115.7919 101° East 496 571 40,900  Level Los Angeles Center
09:18PM 33.4539 -115.6275 101° East 500 575 40,900  Level Los Angeles Center
09:19PM 33.4281 -115.4647 101° East 499 574 40,900  Level Los Angeles Center
09:20PM 33.4022 -115.3022 101° East 497 572 40,900  Level Los Angeles Center
09:21PM 33.3750 -115.1383 101° East 500 575 40,900  Level Los Angeles Center
09:22PM 33.3494 -114.9747 101° East 500 575 40,900  Level Los Angeles Center
09:23PM 33.3222 -114.8100 101° East 504 580 40,900  Level Los Angeles Center
09:24PM 33.2908 -114.6128 101° East 503 579 40,900  Level Los Angeles Center
09:24PM 33.2867 -114.5636 96° East 504 580 40,900  Level Albuquerque Center
09:25PM 33.2592 -114.3986 101° East 505 581 40,900  Level Albuquerque Center
09:26PM 33.2306 -114.2356 102° East 504 580 40,900  Level Albuquerque Center
09:27PM 33.2022 -114.0700 102° East 507 583 40,900  Level Albuquerque Center
09:29PM 33.1733 -113.9072 102° East 505 581 40,900  Level Albuquerque Center
09:30PM 33.1397 -113.7114 102° East 503 579 40,900  Level Albuquerque Center
09:31PM 33.1108 -113.5456 102° East 505 581 40,900  Level Albuquerque Center
09:32PM 33.0822 -113.3792 102° East 508 585 40,900  Level Albuquerque Center
09:33PM 33.0533 -113.2119 102° East 511 588 40,900  Level Albuquerque Center
09:34PM 33.0242 -113.0458 102° East 512 589 40,900  Level Albuquerque Center
09:35PM 32.9983 -112.8781 100° East 513 590 40,900  Level Albuquerque Center
09:36PM 32.9797 -112.7092 97° East 512 589 40,900  Level Albuquerque Center
09:37PM 32.9603 -112.5408 98° East 512 589 40,900  Level Albuquerque Center
09:38PM 32.9397 -112.3733 98° East 510 587 40,900  Level Albuquerque Center
09:39PM 32.9183 -112.1839 98° East 512 589 41,000  Climbing Albuquerque Center
09:40PM 32.8972 -112.0192 99° East 508 585 40,900 -60 Descending Albuquerque Center
09:41PM 32.8769 -111.8561 98° East 504 580 40,900  Level Albuquerque Center
09:42PM 32.8575 -111.6936 98° East 501 577 40,900  Level Albuquerque Center
09:43PM 32.8378 -111.5297 98° East 502 578 41,000  Climbing Albuquerque Center
09:44PM 32.8164 -111.3667 99° East 503 579 40,900  Descending Albuquerque Center
09:45PM 32.7917 -111.1683 98° East 507 583 41,000  Climbing Albuquerque Center
09:46PM 32.7697 -111.0025 99° East 510 587 41,000  Level Albuquerque Center
09:47PM 32.7472 -110.8350 99° East 513 590 41,000  Level Albuquerque Center
09:48PM 32.7250 -110.6697 99° East 512 589 41,000  Level Albuquerque Center
09:49PM 32.7022 -110.5036 99° East 512 589 41,000  Level Albuquerque Center
09:50PM 32.6797 -110.3383 99° East 512 589 41,000 -60 Level Albuquerque Center
09:51PM 32.6589 -110.1736 98° East 512 589 40,900 -60 Descending Albuquerque Center
09:52PM 32.6356 -110.0103 100° East 510 587 40,900  Level Albuquerque Center
09:53PM 32.6069 -109.8147 100° East 508 585 40,900  Level Albuquerque Center
09:54PM 32.5822 -109.6500 100° East 514 592 41,000  Climbing Albuquerque Center
09:55PM 32.5594 -109.4878 99° East 510 587 41,000 -60 Level Albuquerque Center
09:56PM 32.5367 -109.3294 100° East 503 579 40,900  Descending Albuquerque Center
09:57PM 32.5133 -109.1669 100° East 504 580 41,000  Climbing Albuquerque Center
09:58PM 32.4850 -108.9747 100° East 504 580 41,000 -240 Level Albuquerque Center
09:59PM 32.4606 -108.8139 100° East 504 580 40,600 -1,500 Descending Albuquerque Center
10:00PM 32.4375 -108.6525 100° East 504 580 38,000 -2,760 Descending Albuquerque Center
10:01PM 32.4122 -108.4911 100° East 506 582 35,100 -2,700 Descending Albuquerque Center
10:02PM 32.3847 -108.3128 100° East 513 590 32,500 -1,740 Descending Albuquerque Center
10:03PM 32.3603 -108.1447 100° East 518 596 31,600 -1,020 Descending Albuquerque Center
10:04PM 32.3339 -107.9800 101° East 515 593 30,500 -1,260 Descending Albuquerque Center
10:05PM 32.3081 -107.8206 101° East 502 578 29,100 -1,860 Descending Albuquerque Center
10:06PM 32.2842 -107.6658 100° East 489 563 26,800 -2,460 Descending Albuquerque Center
10:07PM 32.2508 -107.4961 103° East 468 539 24,100 -2,400 Descending Albuquerque Center
10:08PM 32.2167 -107.3656 107° East 454 522 21,900 -2,100 Descending Albuquerque Center
10:09PM 32.1839 -107.2294 106° East 440 506 19,800 -2,340 Descending Albuquerque Center
10:10PM 32.1519 -107.0828 104° East 429 494 17,200 -2,520 Descending Albuquerque Center
10:11PM 32.1347 -107.0117 106° East 410 472 16,000 -2,100 Descending Albuquerque Center
10:11PM 32.1228 -106.9586 105° East 414 476 15,100 -2,160 Descending Albuquerque Center
10:12PM 32.1081 -106.9081 109° East 389 448 14,300 -2,100 Descending Albuquerque Center
10:12PM 32.0931 -106.8372 104° East 395 455 13,000 -2,220 Descending Albuquerque Center
10:13PM 32.0786 -106.7900 110° East 374 430 12,100 -2,220 Descending Albuquerque Center
10:14PM 32.0533 -106.6836 106° East 362 417 10,400 -1,140 Descending Albuquerque Center
10:15PM 31.9305 -106.6532 168° South  Level FlightAware Approximate
10:16PM 32.0081 -106.4975 168° South 310 357 9,000  Level Albuquerque Center
10:17PM 31.9714 -106.4189 119° Southeast 274 315 8,300 -1,080 Descending Albuquerque Center
10:18PM 31.9356 -106.3453 120° Southeast 260 299 6,900 -1,320 Descending Albuquerque Center
10:19PM 31.8858 -106.3014 143° Southeast 224 258 5,600 -1,140 Descending Albuquerque Center
10:20PM 31.8497 -106.3303 214° Southwest 152 175 4,700 -840 Descending Albuquerque Center
10:21PM 31.8231 -106.3686 231° Southwest 141 162 4,000 -720 Descending Albuquerque Center
10:23PM 31.8000 -106.3667 169° South  Level FlightAware Approximate
10:30PM 31.8072 -106.3764 169° South  Level Estimated
10:31PM 31.8072 -106.3764 169° South  Level Estimated
10:32PM 31.8072 -106.3764 169° South  Level Estimated
10:33PM 31.8072 -106.3764 169° South  Level Estimated